sensor_id;sensor_type;location;lat;lon;timestamp;pressure;altitude;pressure_sealevel;temperature;humidity
72921;BME280;61064;51.654;5.476;2023-05-01T00:00:52;101786.13;;;12.45;65.28
72921;BME280;61064;51.654;5.476;2023-05-01T00:03:17;101795.03;;;12.45;65.00
72921;BME280;61064;51.654;5.476;2023-05-01T00:05:44;101793.28;;;12.47;65.11
72921;BME280;61064;51.654;5.476;2023-05-01T00:08:09;101792.41;;;12.47;65.19
72921;BME280;61064;51.654;5.476;2023-05-01T00:10:35;101784.38;;;12.48;65.11
72921;BME280;61064;51.654;5.476;2023-05-01T00:13:01;101779.06;;;12.47;65.27
72921;BME280;61064;51.654;5.476;2023-05-01T00:15:26;101779.97;;;12.50;65.28
72921;BME280;61064;51.654;5.476;2023-05-01T00:17:52;101775.50;;;12.49;65.20
72921;BME280;61064;51.654;5.476;2023-05-01T00:20:18;101767.47;;;12.46;65.47
72921;BME280;61064;51.654;5.476;2023-05-01T00:22:43;101776.38;;;12.48;65.49
72921;BME280;61064;51.654;5.476;2023-05-01T00:25:08;101763.00;;;12.45;65.62
72921;BME280;61064;51.654;5.476;2023-05-01T00:27:34;101764.81;;;12.46;65.74
72921;BME280;61064;51.654;5.476;2023-05-01T00:30:00;101762.09;;;12.45;65.88
72921;BME280;61064;51.654;5.476;2023-05-01T00:32:26;101757.66;;;12.44;65.82
72921;BME280;61064;51.654;5.476;2023-05-01T00:34:51;101750.53;;;12.44;65.91
72921;BME280;61064;51.654;5.476;2023-05-01T00:37:17;101750.50;;;12.43;65.95
72921;BME280;61064;51.654;5.476;2023-05-01T00:39:42;101746.03;;;12.40;66.08
72921;BME280;61064;51.654;5.476;2023-05-01T00:42:07;101733.56;;;12.39;66.13
72921;BME280;61064;51.654;5.476;2023-05-01T00:44:33;101743.38;;;12.40;66.14
72921;BME280;61064;51.654;5.476;2023-05-01T00:46:58;101744.28;;;12.41;66.04
72921;BME280;61064;51.654;5.476;2023-05-01T00:49:26;101738.06;;;12.42;66.23
72921;BME280;61064;51.654;5.476;2023-05-01T00:51:51;101735.41;;;12.42;65.95
72921;BME280;61064;51.654;5.476;2023-05-01T00:54:17;101729.16;;;12.41;66.18
72921;BME280;61064;51.654;5.476;2023-05-01T00:56:45;101725.59;;;12.41;65.98
72921;BME280;61064;51.654;5.476;2023-05-01T00:59:11;101727.34;;;12.40;66.20
72921;BME280;61064;51.654;5.476;2023-05-01T01:01:36;101722.91;;;12.39;66.09
72921;BME280;61064;51.654;5.476;2023-05-01T01:04:02;101717.53;;;12.38;66.09
72921;BME280;61064;51.654;5.476;2023-05-01T01:06:39;101715.75;;;12.38;66.21
72921;BME280;61064;51.654;5.476;2023-05-01T01:12:05;101713.03;;;12.34;66.18
72921;BME280;61064;51.654;5.476;2023-05-01T01:14:49;101709.47;;;12.33;66.11
72921;BME280;61064;51.654;5.476;2023-05-01T01:17:26;101704.09;;;12.32;66.25
72921;BME280;61064;51.654;5.476;2023-05-01T01:20:16;101702.34;;;12.32;66.14
72921;BME280;61064;51.654;5.476;2023-05-01T01:22:48;101704.09;;;12.32;66.28
72921;BME280;61064;51.654;5.476;2023-05-01T01:25:28;101697.84;;;12.28;66.30
72921;BME280;61064;51.654;5.476;2023-05-01T01:28:33;101701.44;;;12.30;66.28
72921;BME280;61064;51.654;5.476;2023-05-01T01:34:02;101695.22;;;12.31;66.21
72921;BME280;61064;51.654;5.476;2023-05-01T01:36:36;101686.31;;;12.29;66.34
72921;BME280;61064;51.654;5.476;2023-05-01T01:39:23;101686.31;;;12.29;66.50
72921;BME280;61064;51.654;5.476;2023-05-01T01:41:52;101678.31;;;12.32;66.58
72921;BME280;61064;51.654;5.476;2023-05-01T01:44:33;101678.28;;;12.29;66.74
72921;BME280;61064;51.654;5.476;2023-05-01T01:47:05;101675.59;;;12.28;66.88
72921;BME280;61064;51.654;5.476;2023-05-01T01:49:33;101667.59;;;12.28;66.88
72921;BME280;61064;51.654;5.476;2023-05-01T01:52:02;101676.50;;;12.28;66.95
72921;BME280;61064;51.654;5.476;2023-05-01T01:54:32;101666.69;;;12.27;67.26
72921;BME280;61064;51.654;5.476;2023-05-01T01:57:01;101651.53;;;12.23;67.12
72921;BME280;61064;51.654;5.476;2023-05-01T01:59:30;101655.97;;;12.23;67.13
72921;BME280;61064;51.654;5.476;2023-05-01T02:01:57;101651.44;;;12.17;67.32
72921;BME280;61064;51.654;5.476;2023-05-01T02:04:24;101645.22;;;12.17;67.18
72921;BME280;61064;51.654;5.476;2023-05-01T02:06:50;101638.97;;;12.13;67.38
72921;BME280;61064;51.654;5.476;2023-05-01T02:09:18;101650.53;;;12.14;67.49
72921;BME280;61064;51.654;5.476;2023-05-01T02:11:44;101635.38;;;12.11;67.51
72921;BME280;61064;51.654;5.476;2023-05-01T02:14:13;101629.13;;;12.11;67.61
72921;BME280;61064;51.654;5.476;2023-05-01T02:16:40;101631.81;;;12.12;67.51
72921;BME280;61064;51.654;5.476;2023-05-01T02:19:06;101629.13;;;12.11;67.57
72921;BME280;61064;51.654;5.476;2023-05-01T02:21:35;101629.13;;;12.11;67.75
72921;BME280;61064;51.654;5.476;2023-05-01T02:24:04;101625.53;;;12.07;67.71
72921;BME280;61064;51.654;5.476;2023-05-01T02:26:36;101620.16;;;12.02;67.90
72921;BME280;61064;51.654;5.476;2023-05-01T02:29:02;101627.28;;;12.03;67.91
72921;BME280;61064;51.654;5.476;2023-05-01T02:31:29;101624.63;;;12.03;68.03
72921;BME280;61064;51.654;5.476;2023-05-01T02:33:55;101618.38;;;12.04;68.04
72921;BME280;61064;51.654;5.476;2023-05-01T02:36:20;101605.03;;;12.01;67.81
72921;BME280;61064;51.654;5.476;2023-05-01T02:38:46;101621.94;;;12.05;67.97
72921;BME280;61064;51.654;5.476;2023-05-01T02:41:15;101612.16;;;12.04;67.97
72921;BME280;61064;51.654;5.476;2023-05-01T02:43:42;101606.81;;;12.04;67.83
72921;BME280;61064;51.654;5.476;2023-05-01T02:46:11;101610.38;;;12.03;68.23
72921;BME280;61064;51.654;5.476;2023-05-01T02:48:37;101599.69;;;12.01;68.09
72921;BME280;61064;51.654;5.476;2023-05-01T02:51:05;101599.66;;;12.00;68.19
72921;BME280;61064;51.654;5.476;2023-05-01T02:53:31;101584.47;;;11.94;68.32
72921;BME280;61064;51.654;5.476;2023-05-01T02:55:57;101589.88;;;11.97;68.27
72921;BME280;61064;51.654;5.476;2023-05-01T02:58:23;101589.88;;;11.97;68.48
72921;BME280;61064;51.654;5.476;2023-05-01T03:00:48;101593.44;;;11.98;68.51
72921;BME280;61064;51.654;5.476;2023-05-01T03:03:14;101581.84;;;11.96;68.80
72921;BME280;61064;51.654;5.476;2023-05-01T03:05:40;101580.91;;;11.94;68.64
72921;BME280;61064;51.654;5.476;2023-05-01T03:08:06;101585.34;;;11.93;68.69
72921;BME280;61064;51.654;5.476;2023-05-01T03:10:32;101582.69;;;11.92;68.78
72921;BME280;61064;51.654;5.476;2023-05-01T03:12:58;101582.69;;;11.92;68.74
72921;BME280;61064;51.654;5.476;2023-05-01T03:15:23;101578.19;;;11.89;68.85
72921;BME280;61064;51.654;5.476;2023-05-01T03:17:48;101577.28;;;11.89;68.90
72921;BME280;61064;51.654;5.476;2023-05-01T03:20:14;101575.50;;;11.88;68.83
72921;BME280;61064;51.654;5.476;2023-05-01T03:22:40;101571.94;;;11.87;68.84
72921;BME280;61064;51.654;5.476;2023-05-01T03:25:05;101572.81;;;11.85;68.78
72921;BME280;61064;51.654;5.476;2023-05-01T03:27:31;101570.13;;;11.83;69.02
72921;BME280;61064;51.654;5.476;2023-05-01T03:29:56;101559.41;;;11.82;68.91
72921;BME280;61064;51.654;5.476;2023-05-01T03:32:22;101548.75;;;11.80;69.08
72921;BME280;61064;51.654;5.476;2023-05-01T03:34:47;101554.03;;;11.77;69.00
72921;BME280;61064;51.654;5.476;2023-05-01T03:37:13;101545.16;;;11.75;68.77
72921;BME280;61064;51.654;5.476;2023-05-01T03:39:39;101544.16;;;11.72;69.04
72921;BME280;61064;51.654;5.476;2023-05-01T03:42:04;101556.59;;;11.70;69.01
72921;BME280;61064;51.654;5.476;2023-05-01T03:44:30;101546.75;;;11.65;69.00
72921;BME280;61064;51.654;5.476;2023-05-01T03:46:56;101538.75;;;11.65;69.05
72921;BME280;61064;51.654;5.476;2023-05-01T03:49:22;101544.06;;;11.62;68.99
72921;BME280;61064;51.654;5.476;2023-05-01T03:51:47;101537.84;;;11.63;68.96
72921;BME280;61064;51.654;5.476;2023-05-01T03:54:13;101543.13;;;11.60;68.99
72921;BME280;61064;51.654;5.476;2023-05-01T03:56:38;101535.16;;;11.62;68.85
72921;BME280;61064;51.654;5.476;2023-05-01T03:59:03;101539.59;;;11.61;68.91
72921;BME280;61064;51.654;5.476;2023-05-01T04:01:29;101538.69;;;11.61;68.87
72921;BME280;61064;51.654;5.476;2023-05-01T04:03:54;101533.34;;;11.58;68.89
72921;BME280;61064;51.654;5.476;2023-05-01T04:06:19;101539.56;;;11.58;68.89
72921;BME280;61064;51.654;5.476;2023-05-01T04:08:46;101533.28;;;11.55;69.02
72921;BME280;61064;51.654;5.476;2023-05-01T04:11:11;101539.47;;;11.54;68.84
72921;BME280;61064;51.654;5.476;2023-05-01T04:13:37;101533.28;;;11.55;68.97
72921;BME280;61064;51.654;5.476;2023-05-01T04:16:02;101535.97;;;11.56;68.83
72921;BME280;61064;51.654;5.476;2023-05-01T04:18:28;101534.22;;;11.58;68.67
72921;BME280;61064;51.654;5.476;2023-05-01T04:20:53;101527.97;;;11.56;68.81
72921;BME280;61064;51.654;5.476;2023-05-01T04:23:19;101529.81;;;11.59;68.91
72921;BME280;61064;51.654;5.476;2023-05-01T04:25:44;101539.56;;;11.58;68.72
72921;BME280;61064;51.654;5.476;2023-05-01T04:28:11;101531.53;;;11.57;68.94
72921;BME280;61064;51.654;5.476;2023-05-01T04:30:36;101527.09;;;11.57;69.06
72921;BME280;61064;51.654;5.476;2023-05-01T04:33:05;101521.69;;;11.51;68.82
72921;BME280;61064;51.654;5.476;2023-05-01T04:35:36;101523.50;;;11.55;69.06
72921;BME280;61064;51.654;5.476;2023-05-01T04:38:03;101519.94;;;11.53;69.09
72921;BME280;61064;51.654;5.476;2023-05-01T04:40:29;101517.28;;;11.55;69.17
72921;BME280;61064;51.654;5.476;2023-05-01T04:42:58;101517.25;;;11.52;69.05
72921;BME280;61064;51.654;5.476;2023-05-01T04:45:24;101534.16;;;11.55;69.20
72921;BME280;61064;51.654;5.476;2023-05-01T04:47:49;101533.28;;;11.55;69.04
72921;BME280;61064;51.654;5.476;2023-05-01T04:50:14;101519.94;;;11.52;68.99
72921;BME280;61064;51.654;5.476;2023-05-01T04:52:40;101532.38;;;11.53;68.86
72921;BME280;61064;51.654;5.476;2023-05-01T04:55:06;101535.03;;;11.54;69.09
72921;BME280;61064;51.654;5.476;2023-05-01T04:57:33;101544.81;;;11.54;69.11
72921;BME280;61064;51.654;5.476;2023-05-01T04:59:59;101536.84;;;11.55;69.20
72921;BME280;61064;51.654;5.476;2023-05-01T05:02:25;101531.50;;;11.55;69.06
72921;BME280;61064;51.654;5.476;2023-05-01T05:04:51;101532.38;;;11.54;69.07
72921;BME280;61064;51.654;5.476;2023-05-01T05:07:18;101533.28;;;11.53;69.32
72921;BME280;61064;51.654;5.476;2023-05-01T05:09:43;101535.03;;;11.54;69.05
72921;BME280;61064;51.654;5.476;2023-05-01T05:12:09;101536.81;;;11.54;69.04
72921;BME280;61064;51.654;5.476;2023-05-01T05:14:35;101521.72;;;11.53;69.17
72921;BME280;61064;51.654;5.476;2023-05-01T05:17:00;101532.38;;;11.54;69.23
72921;BME280;61064;51.654;5.476;2023-05-01T05:19:25;101527.03;;;11.54;69.26
72921;BME280;61064;51.654;5.476;2023-05-01T05:21:51;101527.97;;;11.56;69.09
72921;BME280;61064;51.654;5.476;2023-05-01T05:24:16;101528.88;;;11.57;69.17
72921;BME280;61064;51.654;5.476;2023-05-01T05:26:41;101528.00;;;11.59;69.08
72921;BME280;61064;51.654;5.476;2023-05-01T05:29:07;101529.78;;;11.60;69.16
72921;BME280;61064;51.654;5.476;2023-05-01T05:31:32;101535.19;;;11.63;68.89
72921;BME280;61064;51.654;5.476;2023-05-01T05:33:58;101529.78;;;11.60;69.09
72921;BME280;61064;51.654;5.476;2023-05-01T05:36:23;101527.19;;;11.65;69.03
72921;BME280;61064;51.654;5.476;2023-05-01T05:38:49;101533.44;;;11.67;69.45
72921;BME280;61064;51.654;5.476;2023-05-01T05:41:15;101529.00;;;11.67;68.91
72921;BME280;61064;51.654;5.476;2023-05-01T05:43:40;101520.16;;;11.68;69.13
72921;BME280;61064;51.654;5.476;2023-05-01T05:46:06;101521.06;;;11.72;69.02
72921;BME280;61064;51.654;5.476;2023-05-01T05:48:31;101521.13;;;11.74;69.09
72921;BME280;61064;51.654;5.476;2023-05-01T05:50:57;101530.94;;;11.78;68.91
72921;BME280;61064;51.654;5.476;2023-05-01T05:53:22;101522.09;;;11.80;68.94
72921;BME280;61064;51.654;5.476;2023-05-01T05:55:48;101524.81;;;11.85;68.96
72921;BME280;61064;51.654;5.476;2023-05-01T05:58:14;101515.06;;;11.88;68.88
72921;BME280;61064;51.654;5.476;2023-05-01T06:00:46;101509.78;;;11.91;68.61
72921;BME280;61064;51.654;5.476;2023-05-01T06:03:13;101500.91;;;11.91;68.65
72921;BME280;61064;51.654;5.476;2023-05-01T06:05:39;101510.75;;;11.98;68.70
72921;BME280;61064;51.654;5.476;2023-05-01T06:08:04;101514.38;;;12.03;68.51
72921;BME280;61064;51.654;5.476;2023-05-01T06:10:30;101507.31;;;12.08;68.37
72921;BME280;61064;51.654;5.476;2023-05-01T06:12:55;101510.03;;;12.13;68.50
72921;BME280;61064;51.654;5.476;2023-05-01T06:15:20;101507.44;;;12.19;68.31
72921;BME280;61064;51.654;5.476;2023-05-01T06:17:46;101499.47;;;12.23;68.28
72921;BME280;61064;51.654;5.476;2023-05-01T06:20:11;101506.66;;;12.32;68.24
72921;BME280;61064;51.654;5.476;2023-05-01T06:22:38;101510.28;;;12.38;68.06
72921;BME280;61064;51.654;5.476;2023-05-01T06:25:03;101506.72;;;12.39;67.81
72921;BME280;61064;51.654;5.476;2023-05-01T06:27:30;101505.00;;;12.41;67.92
72921;BME280;61064;51.654;5.476;2023-05-01T06:29:55;101500.56;;;12.45;67.77
72921;BME280;61064;51.654;5.476;2023-05-01T06:32:21;101514.84;;;12.50;67.68
72921;BME280;61064;51.654;5.476;2023-05-01T06:34:47;101513.13;;;12.54;67.64
72921;BME280;61064;51.654;5.476;2023-05-01T06:37:12;101502.41;;;12.52;67.55
72921;BME280;61064;51.654;5.476;2023-05-01T06:39:38;101514.94;;;12.61;67.60
72921;BME280;61064;51.654;5.476;2023-05-01T06:42:03;101499.88;;;12.67;67.81
72921;BME280;61064;51.654;5.476;2023-05-01T06:44:29;101508.84;;;12.77;67.87
72921;BME280;61064;51.654;5.476;2023-05-01T06:46:54;101506.25;;;12.84;67.52
72921;BME280;61064;51.654;5.476;2023-05-01T06:49:21;101502.78;;;12.96;67.57
72921;BME280;61064;51.654;5.476;2023-05-01T06:51:46;101497.50;;;13.04;67.09
72921;BME280;61064;51.654;5.476;2023-05-01T06:54:12;101502.84;;;13.10;66.94
72921;BME280;61064;51.654;5.476;2023-05-01T06:56:37;101505.59;;;13.16;66.86
72921;BME280;61064;51.654;5.476;2023-05-01T06:59:03;101496.75;;;13.20;67.03
72921;BME280;61064;51.654;5.476;2023-05-01T07:01:32;101495.88;;;13.27;66.87
72921;BME280;61064;51.654;5.476;2023-05-01T07:03:58;101490.53;;;13.28;66.98
72921;BME280;61064;51.654;5.476;2023-05-01T07:06:23;101493.25;;;13.36;66.85
72921;BME280;61064;51.654;5.476;2023-05-01T07:08:48;101485.22;;;13.35;67.01
72921;BME280;61064;51.654;5.476;2023-05-01T07:11:15;101497.78;;;13.48;66.92
72921;BME280;61064;51.654;5.476;2023-05-01T07:13:41;101489.75;;;13.49;66.59
72921;BME280;61064;51.654;5.476;2023-05-01T07:16:06;101488.91;;;13.61;66.67
72921;BME280;61064;51.654;5.476;2023-05-01T07:18:32;101495.19;;;13.67;66.41
72921;BME280;61064;51.654;5.476;2023-05-01T07:20:58;101494.31;;;13.78;66.51
72921;BME280;61064;51.654;5.476;2023-05-01T07:23:24;101478.28;;;13.79;66.38
72921;BME280;61064;51.654;5.476;2023-05-01T07:25:50;101489.94;;;13.92;66.27
72921;BME280;61064;51.654;5.476;2023-05-01T07:28:16;101474.78;;;13.97;66.51
72921;BME280;61064;51.654;5.476;2023-05-01T07:30:42;101492.66;;;14.11;65.99
72921;BME280;61064;51.654;5.476;2023-05-01T07:33:07;101494.44;;;14.17;65.72
72921;BME280;61064;51.654;5.476;2023-05-01T07:35:33;101494.47;;;14.26;65.96
72921;BME280;61064;51.654;5.476;2023-05-01T07:37:58;101484.72;;;14.37;65.74
72921;BME280;61064;51.654;5.476;2023-05-01T07:40:23;101490.97;;;14.51;65.29
72921;BME280;61064;51.654;5.476;2023-05-01T07:42:49;101484.72;;;14.65;65.04
72921;BME280;61064;51.654;5.476;2023-05-01T07:45:15;101494.56;;;14.76;64.73
72921;BME280;61064;51.654;5.476;2023-05-01T07:47:40;101490.97;;;14.86;64.39
72921;BME280;61064;51.654;5.476;2023-05-01T07:50:10;101496.31;;;14.97;64.34
72921;BME280;61064;51.654;5.476;2023-05-01T07:52:35;101488.25;;;15.02;64.30
72921;BME280;61064;51.654;5.476;2023-05-01T07:55:02;101490.91;;;15.14;64.23
72921;BME280;61064;51.654;5.476;2023-05-01T07:57:27;101498.94;;;15.26;64.00
72921;BME280;61064;51.654;5.476;2023-05-01T07:59:54;101496.19;;;15.38;63.65
72921;BME280;61064;51.654;5.476;2023-05-01T08:02:20;101494.41;;;15.46;63.84
72921;BME280;61064;51.654;5.476;2023-05-01T08:04:46;101502.44;;;15.66;63.85
72921;BME280;61064;51.654;5.476;2023-05-01T08:07:12;101496.97;;;15.87;63.53
72921;BME280;61064;51.654;5.476;2023-05-01T08:09:38;101494.16;;;16.07;63.03
72921;BME280;61064;51.654;5.476;2023-05-01T08:12:03;101485.19;;;16.15;62.81
72921;BME280;61064;51.654;5.476;2023-05-01T08:14:28;101484.19;;;16.32;62.25
72921;BME280;61064;51.654;5.476;2023-05-01T08:16:54;101492.16;;;16.44;62.44
72921;BME280;61064;51.654;5.476;2023-05-01T08:19:20;101486.69;;;16.59;62.25
72921;BME280;61064;51.654;5.476;2023-05-01T08:21:45;101487.41;;;16.78;61.73
72921;BME280;61064;51.654;5.476;2023-05-01T08:24:11;101471.16;;;16.91;61.36
72921;BME280;61064;51.654;5.476;2023-05-01T08:26:36;101473.69;;;17.07;60.68
72921;BME280;61064;51.654;5.476;2023-05-01T08:29:02;101478.06;;;17.17;60.38
72921;BME280;61064;51.654;5.476;2023-05-01T08:31:27;101473.53;;;17.23;60.36
72921;BME280;61064;51.654;5.476;2023-05-01T08:33:53;101473.38;;;17.35;59.97
72921;BME280;61064;51.654;5.476;2023-05-01T08:36:18;101466.09;;;17.46;59.62
72921;BME280;61064;51.654;5.476;2023-05-01T08:38:43;101466.91;;;17.55;59.55
72921;BME280;61064;51.654;5.476;2023-05-01T08:41:14;101470.34;;;17.67;59.14
72921;BME280;61064;51.654;5.476;2023-05-01T08:43:41;101474.72;;;17.76;58.74
72921;BME280;61064;51.654;5.476;2023-05-01T08:46:08;101465.66;;;17.83;59.37
72921;BME280;61064;51.654;5.476;2023-05-01T08:48:35;101469.06;;;17.97;59.13
72921;BME280;61064;51.654;5.476;2023-05-01T08:51:01;101467.97;;;18.09;58.88
72921;BME280;61064;51.654;5.476;2023-05-01T08:53:30;101469.56;;;18.23;58.69
72921;BME280;61064;51.654;5.476;2023-05-01T08:55:57;101461.31;;;18.34;58.27
72921;BME280;61064;51.654;5.476;2023-05-01T08:58:24;101470.09;;;18.45;58.29
72921;BME280;61064;51.654;5.476;2023-05-01T09:00:51;101470.91;;;18.55;57.81
72921;BME280;61064;51.654;5.476;2023-05-01T09:03:18;101466.25;;;18.63;57.48
72921;BME280;61064;51.654;5.476;2023-05-01T09:05:44;101473.25;;;18.75;57.79
72921;BME280;61064;51.654;5.476;2023-05-01T09:08:10;101459.56;;;18.87;57.61
72921;BME280;61064;51.654;5.476;2023-05-01T09:10:41;101470.97;;;19.02;56.60
72921;BME280;61064;51.654;5.476;2023-05-01T09:13:09;101465.34;;;19.13;56.75
72921;BME280;61064;51.654;5.476;2023-05-01T09:15:34;101470.63;;;19.21;56.74
72921;BME280;61064;51.654;5.476;2023-05-01T09:18:00;101476.72;;;19.30;56.23
72921;BME280;61064;51.654;5.476;2023-05-01T09:20:25;101466.75;;;19.34;56.18
72921;BME280;61064;51.654;5.476;2023-05-01T09:22:54;101467.41;;;19.48;55.47
72921;BME280;61064;51.654;5.476;2023-05-01T09:25:21;101465.44;;;19.56;55.63
72921;BME280;61064;51.654;5.476;2023-05-01T09:27:46;101465.13;;;19.71;55.22
72921;BME280;61064;51.654;5.476;2023-05-01T09:30:31;101460.25;;;19.88;55.08
72921;BME280;61064;51.654;5.476;2023-05-01T09:33:14;101462.59;;;20.04;54.73
72921;BME280;61064;51.654;5.476;2023-05-01T09:35:54;101461.34;;;20.18;54.36
72921;BME280;61064;51.654;5.476;2023-05-01T09:38:24;101462.84;;;20.33;54.11
72921;BME280;61064;51.654;5.476;2023-05-01T09:40:55;101461.59;;;20.48;53.92
72921;BME280;61064;51.654;5.476;2023-05-01T09:43:28;101461.16;;;20.64;53.76
72921;BME280;61064;51.654;5.476;2023-05-01T09:46:05;101457.28;;;20.74;52.77
72921;BME280;61064;51.654;5.476;2023-05-01T09:48:33;101461.47;;;20.88;52.73
72921;BME280;61064;51.654;5.476;2023-05-01T09:50:58;101451.41;;;20.93;52.23
72921;BME280;61064;51.654;5.476;2023-05-01T09:53:37;101445.97;;;20.94;51.99
72921;BME280;61064;51.654;5.476;2023-05-01T09:56:03;101456.63;;;21.00;51.54
72921;BME280;61064;51.654;5.476;2023-05-01T09:58:29;101455.50;;;21.07;51.89
72921;BME280;61064;51.654;5.476;2023-05-01T10:00:54;101450.00;;;21.12;51.40
72921;BME280;61064;51.654;5.476;2023-05-01T10:03:20;101448.91;;;21.19;51.24
72921;BME280;61064;51.654;5.476;2023-05-01T10:05:47;101449.91;;;21.17;51.55
72921;BME280;61064;51.654;5.476;2023-05-01T10:08:12;101453.38;;;21.22;51.46
72921;BME280;61064;51.654;5.476;2023-05-01T10:10:42;101459.66;;;21.22;51.18
72921;BME280;61064;51.654;5.476;2023-05-01T10:13:15;101453.38;;;21.22;50.98
72921;BME280;61064;51.654;5.476;2023-05-01T10:15:41;101452.50;;;21.20;50.70
72921;BME280;61064;51.654;5.476;2023-05-01T10:18:09;101456.28;;;21.12;50.77
72921;BME280;61064;51.654;5.476;2023-05-01T10:20:34;101450.94;;;21.11;50.79
72921;BME280;61064;51.654;5.476;2023-05-01T10:23:01;101450.94;;;21.11;50.71
72921;BME280;61064;51.654;5.476;2023-05-01T10:25:28;101455.50;;;21.07;50.70
72921;BME280;61064;51.654;5.476;2023-05-01T10:27:54;101466.44;;;21.04;50.44
72921;BME280;61064;51.654;5.476;2023-05-01T10:30:21;101480.09;;;21.00;50.53
72921;BME280;61064;51.654;5.476;2023-05-01T10:32:47;101468.44;;;20.96;50.64
72921;BME280;61064;51.654;5.476;2023-05-01T10:35:17;101469.56;;;20.89;50.44
72921;BME280;61064;51.654;5.476;2023-05-01T10:38:05;101477.16;;;20.73;50.77
72921;BME280;61064;51.654;5.476;2023-05-01T10:43:25;101483.56;;;20.69;51.24
72921;BME280;61064;51.654;5.476;2023-05-01T10:45:54;101475.28;;;20.77;51.04
72921;BME280;61064;51.654;5.476;2023-05-01T10:51:19;101474.25;;;20.81;50.97
72921;BME280;61064;51.654;5.476;2023-05-01T10:53:46;101482.25;;;20.86;51.22
72921;BME280;61064;51.654;5.476;2023-05-01T10:56:40;101470.34;;;20.93;51.55
72921;BME280;61064;51.654;5.476;2023-05-01T10:59:06;101472.59;;;21.09;51.08
72921;BME280;61064;51.654;5.476;2023-05-01T11:01:40;101469.75;;;21.14;50.83
72921;BME280;61064;51.654;5.476;2023-05-01T11:04:43;101467.69;;;21.25;50.53
72921;BME280;61064;51.654;5.476;2023-05-01T11:09:45;101468.78;;;21.50;50.39
72921;BME280;61064;51.654;5.476;2023-05-01T11:12:46;101472.09;;;21.62;50.43
72921;BME280;61064;51.654;5.476;2023-05-01T11:17:50;101467.09;;;21.77;49.52
72921;BME280;61064;51.654;5.476;2023-05-01T11:22:52;101473.34;;;21.79;49.09
72921;BME280;61064;51.654;5.476;2023-05-01T11:25:26;101467.09;;;21.77;47.55
72921;BME280;61064;51.654;5.476;2023-05-01T11:27:54;101469.25;;;21.65;47.89
72921;BME280;61064;51.654;5.476;2023-05-01T11:30:20;101473.22;;;21.53;48.17
72921;BME280;61064;51.654;5.476;2023-05-01T11:32:47;101465.22;;;21.48;48.51
72921;BME280;61064;51.654;5.476;2023-05-01T11:35:17;101467.00;;;21.49;48.15
72921;BME280;61064;51.654;5.476;2023-05-01T11:37:43;101474.13;;;21.52;47.85
72921;BME280;61064;51.654;5.476;2023-05-01T11:42:47;101467.66;;;21.57;47.98
72921;BME280;61064;51.654;5.476;2023-05-01T11:45:13;101475.41;;;21.71;48.26
72921;BME280;61064;51.654;5.476;2023-05-01T11:47:39;101471.41;;;21.84;47.57
72921;BME280;61064;51.654;5.476;2023-05-01T11:50:06;101481.84;;;21.98;47.25
72921;BME280;61064;51.654;5.476;2023-05-01T11:52:42;101482.69;;;22.00;47.01
72921;BME280;61064;51.654;5.476;2023-05-01T11:55:08;101486.38;;;21.97;46.81
72921;BME280;61064;51.654;5.476;2023-05-01T11:58:04;101484.84;;;21.87;47.29
72921;BME280;61064;51.654;5.476;2023-05-01T12:00:32;101489.28;;;21.90;47.44
72921;BME280;61064;51.654;5.476;2023-05-01T12:03:07;101490.06;;;21.93;47.71
72921;BME280;61064;51.654;5.476;2023-05-01T12:05:34;101493.47;;;22.02;46.98
72921;BME280;61064;51.654;5.476;2023-05-01T12:10:36;101489.78;;;22.04;47.08
72921;BME280;61064;51.654;5.476;2023-05-01T12:13:03;101488.81;;;22.07;46.95
72921;BME280;61064;51.654;5.476;2023-05-01T12:15:30;101486.13;;;22.05;47.04
72921;BME280;61064;51.654;5.476;2023-05-01T12:17:56;101492.38;;;22.07;46.72
72921;BME280;61064;51.654;5.476;2023-05-01T12:23:03;101485.78;;;22.17;46.60
72921;BME280;61064;51.654;5.476;2023-05-01T12:25:30;101496.50;;;22.20;46.54
72921;BME280;61064;51.654;5.476;2023-05-01T12:27:58;101485.59;;;22.23;46.35
72921;BME280;61064;51.654;5.476;2023-05-01T12:30:25;101478.31;;;22.24;46.36
72921;BME280;61064;51.654;5.476;2023-05-01T12:32:51;101489.84;;;22.30;45.56
72921;BME280;61064;51.654;5.476;2023-05-01T12:35:16;101485.28;;;22.32;45.45
72921;BME280;61064;51.654;5.476;2023-05-01T12:37:42;101493.25;;;22.37;45.75
72921;BME280;61064;51.654;5.476;2023-05-01T12:40:17;101490.38;;;22.42;45.03
72921;BME280;61064;51.654;5.476;2023-05-01T12:42:43;101480.16;;;22.51;44.72
72921;BME280;61064;51.654;5.476;2023-05-01T12:45:09;101480.00;;;22.56;44.09
72921;BME280;61064;51.654;5.476;2023-05-01T12:47:35;101489.91;;;22.57;44.36
72921;BME280;61064;51.654;5.476;2023-05-01T12:50:02;101488.88;;;22.61;44.03
72921;BME280;61064;51.654;5.476;2023-05-01T12:52:28;101482.63;;;22.57;44.02
72921;BME280;61064;51.654;5.476;2023-05-01T12:55:01;101493.03;;;22.45;43.79
72921;BME280;61064;51.654;5.476;2023-05-01T12:57:26;101481.63;;;22.33;44.41
72921;BME280;61064;51.654;5.476;2023-05-01T13:00:01;101490.84;;;22.28;44.98
72921;BME280;61064;51.654;5.476;2023-05-01T13:02:31;101492.72;;;22.26;45.33
72921;BME280;61064;51.654;5.476;2023-05-01T13:05:10;101485.69;;;22.19;44.97
72921;BME280;61064;51.654;5.476;2023-05-01T13:07:37;101487.06;;;22.04;45.13
72921;BME280;61064;51.654;5.476;2023-05-01T13:10:04;101490.28;;;21.86;45.72
72921;BME280;61064;51.654;5.476;2023-05-01T13:12:30;101491.44;;;21.79;45.89
72921;BME280;61064;51.654;5.476;2023-05-01T13:14:56;101495.28;;;21.70;46.25
72921;BME280;61064;51.654;5.476;2023-05-01T13:17:32;101492.59;;;21.69;46.42
72921;BME280;61064;51.654;5.476;2023-05-01T13:20:06;101494.69;;;21.59;46.21